createdAt,value
2022-10-26T00:02:07.780Z,100481.17
2022-10-26T00:04:38.723Z,100482.50
2022-10-26T00:07:09.575Z,100475.59
2022-10-26T00:09:40.407Z,100481.56
2022-10-26T00:12:11.282Z,100482.41
2022-10-26T00:14:42.148Z,100482.92
2022-10-26T00:17:13.010Z,100487.35
2022-10-26T00:19:44.076Z,100489.02
2022-10-26T00:22:14.960Z,100487.45
2022-10-26T00:24:45.757Z,100486.56
2022-10-26T00:27:18.047Z,100484.63
2022-10-26T00:29:48.837Z,100482.05
2022-10-26T00:32:19.594Z,100485.14
2022-10-26T00:34:50.374Z,100487.20
2022-10-26T00:37:21.234Z,100487.38
2022-10-26T00:39:52.057Z,100486.52
2022-10-26T00:42:25.327Z,100484.25
2022-10-26T00:45:01.997Z,100488.52
2022-10-26T00:47:38.202Z,100491.29
2022-10-26T00:50:13.240Z,100487.34
2022-10-26T00:52:44.219Z,100489.73
2022-10-26T00:55:15.169Z,100488.04
2022-10-26T00:57:45.972Z,100489.73
2022-10-26T01:00:17.650Z,100487.33
2022-10-26T01:02:50.429Z,100487.64
2022-10-26T01:05:22.476Z,100485.23
2022-10-26T01:07:55.270Z,100486.23
2022-10-26T01:10:28.983Z,100490.54
2022-10-26T01:13:01.449Z,100490.73
2022-10-26T01:15:40.304Z,100488.16
2022-10-26T01:18:18.444Z,100489.38
2022-10-26T01:21:14.717Z,100495.88
2022-10-26T01:24:00.460Z,100496.71
2022-10-26T01:26:48.196Z,100498.08
2022-10-26T01:29:36.523Z,100496.70
2022-10-26T01:32:12.522Z,100495.66
2022-10-26T01:34:48.530Z,100498.80
2022-10-26T01:37:25.569Z,100501.95
2022-10-26T01:40:01.296Z,100498.03
2022-10-26T01:42:33.204Z,100500.09
2022-10-26T01:45:09.185Z,100501.45
2022-10-26T01:47:41.958Z,100501.81
2022-10-26T01:50:13.748Z,100502.70
2022-10-26T01:52:44.665Z,100504.38
2022-10-26T01:55:48.262Z,100504.40
2022-10-26T01:58:45.317Z,100508.69
2022-10-26T02:01:44.381Z,100504.71
2022-10-26T02:04:27.148Z,100500.94
2022-10-26T02:07:05.163Z,100501.63
2022-10-26T02:09:47.343Z,100505.56
2022-10-26T02:12:31.581Z,100506.56
2022-10-26T02:15:09.694Z,100511.35
2022-10-26T02:17:47.423Z,100510.48
2022-10-26T02:20:23.340Z,100511.70
2022-10-26T02:22:57.148Z,100518.23
2022-10-26T02:25:31.985Z,100518.10
2022-10-26T02:28:08.048Z,100521.72
2022-10-26T02:30:40.809Z,100524.80
2022-10-26T02:33:14.858Z,100522.02
2022-10-26T02:35:49.845Z,100520.47
2022-10-26T02:38:22.551Z,100523.60
2022-10-26T02:40:56.023Z,100519.33
2022-10-26T02:43:29.234Z,100519.36
2022-10-26T02:46:05.397Z,100517.30
2022-10-26T02:48:36.851Z,100521.27
2022-10-26T02:51:14.300Z,100525.58
2022-10-26T02:53:52.461Z,100529.38
2022-10-26T02:56:27.199Z,100531.63
2022-10-26T02:59:01.905Z,100535.42
2022-10-26T03:01:35.033Z,100534.39
2022-10-26T03:04:06.481Z,100537.16
2022-10-26T03:06:37.334Z,100537.02
2022-10-26T03:09:08.219Z,100544.21
2022-10-26T03:11:39.119Z,100541.65
2022-10-26T03:14:09.977Z,100545.60
2022-10-26T03:16:40.904Z,100545.08
2022-10-26T03:19:12.183Z,100547.48
2022-10-26T03:21:43.060Z,100554.19
2022-10-26T03:24:13.885Z,100557.96
2022-10-26T03:26:45.186Z,100562.09
2022-10-26T03:29:16.014Z,100565.70
2022-10-26T03:31:46.818Z,100561.58
2022-10-26T03:34:17.673Z,100563.97
2022-10-26T03:36:48.690Z,100561.88
2022-10-26T03:39:19.556Z,100564.27
2022-10-26T03:41:50.484Z,100565.34
2022-10-26T03:44:21.274Z,100562.43
2022-10-26T03:46:52.137Z,100566.73
2022-10-26T03:49:23.003Z,100574.27
2022-10-26T03:51:53.857Z,100581.67
2022-10-26T03:54:25.192Z,100582.56
2022-10-26T03:56:55.967Z,100583.14
2022-10-26T03:59:26.819Z,100581.30
2022-10-26T04:01:58.098Z,100580.64
2022-10-26T04:04:29.099Z,100579.48
2022-10-26T04:06:59.968Z,100577.77
2022-10-26T04:09:30.815Z,100575.73
2022-10-26T04:12:01.617Z,100577.12
2022-10-26T04:14:32.396Z,100577.31
2022-10-26T04:17:03.295Z,100580.93
2022-10-26T04:19:34.037Z,100586.27
2022-10-26T04:22:04.870Z,100585.93
2022-10-26T04:24:36.111Z,100587.29
2022-10-26T04:27:10.090Z,100586.94
2022-10-26T04:29:40.882Z,100586.11
2022-10-26T04:32:11.699Z,100589.42
2022-10-26T04:34:42.441Z,100594.23
2022-10-26T04:37:13.722Z,100595.77
2022-10-26T04:39:44.537Z,100596.80
2022-10-26T04:42:15.401Z,100593.35
2022-10-26T04:44:46.372Z,100596.08
2022-10-26T04:47:17.633Z,100599.85
2022-10-26T04:49:48.487Z,100600.00
2022-10-26T04:52:19.360Z,100599.81
2022-10-26T04:54:50.180Z,100602.89
2022-10-26T04:57:21.013Z,100605.46
2022-10-26T04:59:51.910Z,100607.02
2022-10-26T05:02:22.845Z,100614.92
2022-10-26T05:04:53.897Z,100617.34
2022-10-26T05:07:24.846Z,100618.42
2022-10-26T05:09:55.661Z,100618.60
2022-10-26T05:12:27.094Z,100622.39
2022-10-26T05:14:59.639Z,100623.75
2022-10-26T05:17:30.781Z,100625.64
2022-10-26T05:20:05.991Z,100625.13
2022-10-26T05:22:36.874Z,100633.55
2022-10-26T05:25:09.288Z,100635.44
2022-10-26T05:27:40.051Z,100637.66
2022-10-26T05:30:12.994Z,100644.52
2022-10-26T05:32:43.748Z,100643.65
2022-10-26T05:35:14.632Z,100644.34
2022-10-26T05:37:45.400Z,100643.81
2022-10-26T05:40:17.195Z,100644.50
2022-10-26T05:42:48.821Z,100646.02
2022-10-26T05:45:20.812Z,100654.09
2022-10-26T05:47:52.045Z,100650.50
2022-10-26T05:50:23.048Z,100656.49
2022-10-26T05:52:56.582Z,100655.14
2022-10-26T05:55:28.767Z,100660.62
2022-10-26T05:58:00.613Z,100660.77
2022-10-26T06:00:33.135Z,100661.10
2022-10-26T06:03:17.688Z,100661.41
2022-10-26T06:05:55.827Z,100664.66
2022-10-26T06:08:29.227Z,100665.00
2022-10-26T06:11:02.949Z,100667.39
2022-10-26T06:13:35.090Z,100667.38
2022-10-26T06:16:22.160Z,100674.40
2022-10-26T06:19:02.084Z,100672.51
2022-10-26T06:21:49.320Z,100676.77
2022-10-26T06:24:28.623Z,100679.19
2022-10-26T06:27:05.626Z,100681.59
2022-10-26T06:29:48.680Z,100680.23
2022-10-26T06:32:20.270Z,100687.60
2022-10-26T06:34:54.474Z,100687.25
2022-10-26T06:37:26.192Z,100685.02
2022-10-26T06:39:58.693Z,100686.70
2022-10-26T06:42:32.161Z,100694.06
2022-10-26T06:45:03.984Z,100696.79
2022-10-26T06:47:43.670Z,100698.29
2022-10-26T06:50:28.704Z,100704.28
2022-10-26T06:53:17.658Z,100702.37
2022-10-26T06:55:51.692Z,100699.41
2022-10-26T06:58:25.137Z,100700.73
2022-10-26T07:00:57.681Z,100702.72
2022-10-26T07:03:28.659Z,100701.81
2022-10-26T07:05:59.571Z,100704.16
2022-10-26T07:08:31.262Z,100703.76
2022-10-26T07:11:02.095Z,100707.52
2022-10-26T07:13:32.859Z,100707.65
2022-10-26T07:16:03.750Z,100713.29
2022-10-26T07:18:34.782Z,100713.13
2022-10-26T07:21:05.721Z,100714.88
2022-10-26T07:23:36.507Z,100716.79
2022-10-26T07:26:07.513Z,100720.08
2022-10-26T07:28:38.386Z,100722.16
2022-10-26T07:31:09.311Z,100724.08
2022-10-26T07:33:41.588Z,100722.03
2022-10-26T07:36:12.797Z,100726.38
2022-10-26T07:38:43.588Z,100720.17
2022-10-26T07:41:14.407Z,100720.09
2022-10-26T07:43:45.944Z,100722.77
2022-10-26T07:46:16.721Z,100721.86
2022-10-26T07:48:47.528Z,100728.89
2022-10-26T07:51:18.379Z,100731.11
2022-10-26T07:53:50.074Z,100731.45
2022-10-26T07:56:20.907Z,100731.33
2022-10-26T07:58:53.199Z,100731.52
2022-10-26T08:01:24.283Z,100733.08
2022-10-26T08:03:56.630Z,100743.38
2022-10-26T08:06:27.522Z,100744.11
2022-10-26T08:08:58.402Z,100752.04
2022-10-26T08:11:29.322Z,100754.31
2022-10-26T08:14:00.200Z,100757.95
2022-10-26T08:16:31.363Z,100762.10
2022-10-26T08:19:02.193Z,100764.55
2022-10-26T08:21:39.471Z,100761.82
2022-10-26T08:24:11.633Z,100764.10
2022-10-26T08:26:42.635Z,100766.35
2022-10-26T08:29:13.503Z,100763.31
2022-10-26T08:31:44.402Z,100761.81
2022-10-26T08:34:15.213Z,100764.95
2022-10-26T08:36:50.440Z,100765.33
2022-10-26T08:39:21.544Z,100771.03
2022-10-26T08:41:57.799Z,100772.42
2022-10-26T08:44:34.314Z,100776.92
2022-10-26T08:47:12.192Z,100780.88
2022-10-26T08:49:50.818Z,100778.30
2022-10-26T08:52:26.976Z,100779.86
2022-10-26T08:55:01.365Z,100782.77
2022-10-26T08:57:44.130Z,100781.55
2022-10-26T09:00:20.065Z,100784.10
2022-10-26T09:02:55.559Z,100784.40
2022-10-26T09:05:36.753Z,100789.02
2022-10-26T09:08:14.768Z,100790.40
2022-10-26T09:10:55.094Z,100794.33
2022-10-26T09:13:34.723Z,100796.06
2022-10-26T09:16:16.216Z,100797.11
2022-10-26T09:19:00.260Z,100799.49
2022-10-26T09:21:44.410Z,100801.89
2022-10-26T09:24:24.119Z,100806.70
2022-10-26T09:27:00.136Z,100806.70
2022-10-26T09:29:35.717Z,100809.45
2022-10-26T09:32:12.224Z,100810.95
2022-10-26T09:34:47.431Z,100814.16
2022-10-26T09:37:22.300Z,100823.23
2022-10-26T09:40:01.923Z,100825.25
2022-10-26T09:42:40.453Z,100824.72
2022-10-26T09:45:16.784Z,100828.82
2022-10-26T09:47:53.577Z,100831.72
2022-10-26T09:50:29.856Z,100833.88
2022-10-26T09:53:00.671Z,100830.38
2022-10-26T09:55:33.286Z,100827.70
2022-10-26T09:58:11.505Z,100831.56
2022-10-26T10:00:44.146Z,100833.42
2022-10-26T10:03:29.057Z,100835.80
2022-10-26T10:06:18.673Z,100835.63
2022-10-26T10:09:11.035Z,100837.14
2022-10-26T10:11:44.937Z,100837.43
2022-10-26T10:14:18.931Z,100836.50
2022-10-26T10:16:57.871Z,100834.69
2022-10-26T10:19:31.272Z,100834.81
2022-10-26T10:22:10.022Z,100832.02
2022-10-26T10:24:44.754Z,100829.23
2022-10-26T10:27:21.018Z,100832.27
2022-10-26T10:29:59.676Z,100828.98
2022-10-26T10:32:38.671Z,100826.90
2022-10-26T10:35:31.075Z,100825.59
2022-10-26T10:38:02.820Z,100826.88
2022-10-26T10:40:33.972Z,100825.13
2022-10-26T10:43:13.906Z,100823.87
2022-10-26T10:45:53.719Z,100826.22
2022-10-26T10:48:29.466Z,100824.30
2022-10-26T10:51:03.347Z,100823.08
2022-10-26T10:53:39.440Z,100822.94
2022-10-26T10:56:24.775Z,100820.23
2022-10-26T10:59:08.790Z,100823.89
2022-10-26T11:01:45.220Z,100830.65
2022-10-26T11:04:34.170Z,100830.88
2022-10-26T11:07:07.811Z,100826.80
2022-10-26T11:09:42.171Z,100830.44
2022-10-26T11:12:18.260Z,100832.45
2022-10-26T11:14:55.974Z,100833.67
2022-10-26T11:17:30.484Z,100836.13
2022-10-26T11:20:04.173Z,100835.52
2022-10-26T11:22:42.682Z,100838.46
2022-10-26T11:25:19.386Z,100844.70
2022-10-26T11:27:56.223Z,100840.44
2022-10-26T11:30:27.854Z,100846.84
2022-10-26T11:33:04.926Z,100847.40
2022-10-26T11:35:39.455Z,100848.27
2022-10-26T11:38:23.761Z,100847.05
2022-10-26T11:41:13.062Z,100854.64
2022-10-26T11:43:47.240Z,100852.39
2022-10-26T11:46:23.067Z,100851.73
2022-10-26T11:49:00.175Z,100856.24
2022-10-26T11:51:43.091Z,100855.94
2022-10-26T11:54:18.242Z,100851.66
2022-10-26T11:56:53.448Z,100853.73
2022-10-26T11:59:25.207Z,100854.58
2022-10-26T12:02:02.695Z,100853.40
2022-10-26T12:04:38.542Z,100858.94
2022-10-26T12:07:19.212Z,100863.31
2022-10-26T12:09:50.486Z,100865.44
2022-10-26T12:12:28.072Z,100865.83
2022-10-26T12:15:06.994Z,100870.17
2022-10-26T12:17:46.927Z,100872.42
2022-10-26T12:20:40.856Z,100866.90
2022-10-26T12:23:19.091Z,100868.60
2022-10-26T12:26:29.782Z,100864.64
2022-10-26T12:29:29.976Z,100863.42
2022-10-26T12:32:02.430Z,100865.77
2022-10-26T12:35:00.630Z,100867.77
2022-10-26T12:37:39.007Z,100868.73
2022-10-26T12:40:46.202Z,100869.37
2022-10-26T12:43:38.927Z,100871.27
2022-10-26T12:46:43.204Z,100871.95
2022-10-26T12:49:59.265Z,100872.37
2022-10-26T12:52:51.265Z,100868.98
2022-10-26T12:55:42.166Z,100866.99
2022-10-26T12:58:53.309Z,100868.75
2022-10-26T13:02:14.093Z,100871.38
2022-10-26T13:05:07.992Z,100874.20
2022-10-26T13:07:42.144Z,100872.36
2022-10-26T13:10:25.312Z,100868.96
2022-10-26T13:13:00.462Z,100872.79
2022-10-26T13:15:30.786Z,100869.91
2022-10-26T13:18:16.916Z,100872.85
2022-10-26T13:21:04.261Z,100869.77
2022-10-26T13:23:38.997Z,100871.32
2022-10-26T13:26:13.332Z,100869.63
2022-10-26T13:28:52.696Z,100867.75
2022-10-26T13:31:56.897Z,100868.10
2022-10-26T13:34:31.276Z,100866.58
2022-10-26T13:37:13.117Z,100866.08
2022-10-26T13:39:47.028Z,100870.73
2022-10-26T13:42:20.990Z,100871.40
2022-10-26T13:44:57.351Z,100868.95
2022-10-26T13:47:32.569Z,100872.36
2022-10-26T13:50:07.296Z,100872.70
2022-10-26T13:52:41.636Z,100878.88
2022-10-26T13:55:21.977Z,100878.88
2022-10-26T13:58:11.622Z,100878.18
2022-10-26T14:01:00.971Z,100880.96
2022-10-26T14:03:32.074Z,100881.70
2022-10-26T14:06:05.294Z,100886.59
2022-10-26T14:08:36.171Z,100882.38
2022-10-26T14:11:07.304Z,100879.89
2022-10-26T14:13:42.468Z,100877.74
2022-10-26T14:16:18.269Z,100876.83
2022-10-26T14:18:50.232Z,100875.52
2022-10-26T14:21:23.874Z,100876.13
2022-10-26T14:23:57.252Z,100873.33
2022-10-26T14:26:29.906Z,100882.85
2022-10-26T14:29:02.590Z,100885.55
2022-10-26T14:31:35.844Z,100886.52
2022-10-26T14:34:07.622Z,100888.67
2022-10-26T14:36:44.896Z,100888.23
2022-10-26T14:39:26.902Z,100889.68
2022-10-26T14:42:03.131Z,100888.88
2022-10-26T14:44:37.862Z,100888.96
2022-10-26T14:47:20.552Z,100891.25
2022-10-26T14:49:51.469Z,100891.66
2022-10-26T14:52:30.312Z,100892.70
2022-10-26T14:55:03.818Z,100896.49
2022-10-26T14:57:36.992Z,100895.33
2022-10-26T15:00:16.752Z,100896.73
2022-10-26T15:02:50.317Z,100899.02
2022-10-26T15:05:33.273Z,100897.33
2022-10-26T15:08:33.801Z,100905.95
2022-10-26T15:11:16.372Z,100909.59
2022-10-26T15:13:47.205Z,100908.75
2022-10-26T15:16:22.381Z,100911.67
2022-10-26T15:18:53.840Z,100912.73
2022-10-26T15:21:29.144Z,100913.08
2022-10-26T15:24:01.319Z,100914.64
2022-10-26T15:26:32.622Z,100915.18
2022-10-26T15:29:03.432Z,100914.34
2022-10-26T15:31:35.525Z,100916.75
2022-10-26T15:34:17.031Z,100917.45
2022-10-26T15:36:47.819Z,100921.06
2022-10-26T15:39:18.598Z,100916.46
2022-10-26T15:41:52.593Z,100923.70
2022-10-26T15:44:24.458Z,100928.85
2022-10-26T15:47:06.360Z,100932.81
2022-10-26T15:49:39.412Z,100935.07
2022-10-26T15:52:11.601Z,100938.69
2022-10-26T15:54:42.759Z,100936.13
2022-10-26T15:57:17.949Z,100939.23
2022-10-26T15:59:51.491Z,100938.56
2022-10-26T16:02:23.934Z,100943.38
2022-10-26T16:04:56.244Z,100942.71
2022-10-26T16:07:28.799Z,100942.89
2022-10-26T16:10:00.341Z,100945.31
2022-10-26T16:12:31.468Z,100945.33
2022-10-26T16:15:06.084Z,100945.70
2022-10-26T16:17:38.778Z,100955.20
2022-10-26T16:20:14.086Z,100955.92
2022-10-26T16:22:48.504Z,100956.11
2022-10-26T16:25:23.935Z,100958.39
2022-10-26T16:27:56.411Z,100958.96
2022-10-26T16:30:30.415Z,100961.59
2022-10-26T16:33:02.268Z,100962.86
2022-10-26T16:35:33.191Z,100965.48
2022-10-26T16:38:04.356Z,100960.04
2022-10-26T16:40:36.257Z,100965.04
2022-10-26T16:43:08.113Z,100960.09
2022-10-26T16:45:43.089Z,100958.40
2022-10-26T16:48:16.133Z,100955.01
2022-10-26T16:50:47.021Z,100953.00
2022-10-26T16:53:17.841Z,100956.46
2022-10-26T16:55:53.561Z,100957.69
2022-10-26T16:58:24.572Z,100962.35
2022-10-26T17:00:58.352Z,100957.92
2022-10-26T17:03:29.311Z,100965.17
2022-10-26T17:06:02.184Z,100971.20
2022-10-26T17:08:36.967Z,100968.31
2022-10-26T17:11:14.129Z,100971.10
2022-10-26T17:13:45.950Z,100971.45
2022-10-26T17:16:18.909Z,100973.85
2022-10-26T17:18:50.600Z,100974.56
2022-10-26T17:21:28.830Z,100974.91
2022-10-26T17:24:00.300Z,100976.65
2022-10-26T17:26:31.461Z,100977.34
2022-10-26T17:29:02.358Z,100980.10
2022-10-26T17:31:33.492Z,100984.05
2022-10-26T17:34:05.023Z,100978.77
2022-10-26T17:36:35.946Z,100983.73
2022-10-26T17:39:06.956Z,100983.74
2022-10-26T17:41:37.825Z,100986.15
2022-10-26T17:44:08.784Z,100988.89
2022-10-26T17:46:40.132Z,100990.27
2022-10-26T17:49:11.623Z,100993.70
2022-10-26T17:51:42.497Z,100997.65
2022-10-26T17:54:13.354Z,100997.66
2022-10-26T17:56:44.677Z,101002.79
2022-10-26T17:59:15.664Z,100999.55
2022-10-26T18:01:47.382Z,101004.51
2022-10-26T18:04:18.262Z,101001.77
2022-10-26T18:06:49.560Z,101003.32
2022-10-26T18:09:20.601Z,101005.38
2022-10-26T18:11:54.899Z,101007.08
2022-10-26T18:14:26.876Z,101011.54
2022-10-26T18:16:57.755Z,101008.98
2022-10-26T18:19:28.562Z,101010.86
2022-10-26T18:21:59.757Z,101015.31
2022-10-26T18:24:30.835Z,101016.69
2022-10-26T18:27:02.005Z,101016.69
2022-10-26T18:29:35.042Z,101015.31
2022-10-26T18:32:08.567Z,101020.63
2022-10-26T18:34:39.434Z,101026.11
2022-10-26T18:37:10.401Z,101033.11
2022-10-26T18:39:41.297Z,101032.08
2022-10-26T18:42:12.107Z,101033.63
2022-10-26T18:44:43.002Z,101036.36
2022-10-26T18:47:13.848Z,101039.44
2022-10-26T18:49:44.765Z,101040.98
2022-10-26T18:52:15.799Z,101044.23
2022-10-26T18:54:46.975Z,101047.31
2022-10-26T18:57:18.927Z,101043.89
2022-10-26T18:59:54.111Z,101046.79
2022-10-26T19:02:26.264Z,101049.52
2022-10-26T19:04:58.904Z,101048.49
2022-10-26T19:07:29.840Z,101055.16
2022-10-26T19:10:00.744Z,101059.45
2022-10-26T19:12:31.692Z,101056.52
2022-10-26T19:15:02.561Z,101054.83
2022-10-26T19:17:33.392Z,101057.03
2022-10-26T19:20:04.578Z,101061.80
2022-10-26T19:22:35.401Z,101065.73
2022-10-26T19:25:07.152Z,101069.33
2022-10-26T19:27:37.960Z,101074.11
2022-10-26T19:30:10.735Z,101075.64
2022-10-26T19:32:41.549Z,101079.91
2022-10-26T19:35:12.736Z,101084.52
2022-10-26T19:37:43.870Z,101086.41
2022-10-26T19:40:15.108Z,101088.98
2022-10-26T19:42:45.975Z,101089.31
2022-10-26T19:45:16.858Z,101092.21
2022-10-26T19:47:47.882Z,101097.69
2022-10-26T19:50:19.557Z,101097.86
2022-10-26T19:52:50.609Z,101101.81
2022-10-26T19:55:21.720Z,101106.44
2022-10-26T19:57:52.625Z,101104.05
2022-10-26T20:00:23.580Z,101107.81
2022-10-26T20:02:54.469Z,101106.28
2022-10-26T20:05:25.396Z,101107.31
2022-10-26T20:07:56.346Z,101106.30
2022-10-26T20:10:27.289Z,101107.34
2022-10-26T20:12:58.175Z,101106.83
2022-10-26T20:15:29.080Z,101105.80
2022-10-26T20:17:59.962Z,101107.17
2022-10-26T20:20:33.588Z,101110.60
2022-10-26T20:23:04.866Z,101116.93
2022-10-26T20:25:38.300Z,101113.52
2022-10-26T20:28:09.999Z,101109.59
2022-10-26T20:30:42.197Z,101109.07
2022-10-26T20:33:13.849Z,101108.55
2022-10-26T20:35:44.719Z,101111.11
2022-10-26T20:38:21.358Z,101116.77
2022-10-26T20:40:57.155Z,101116.76
2022-10-26T20:43:29.761Z,101118.97
2022-10-26T20:46:01.737Z,101116.41
2022-10-26T20:48:33.918Z,101120.83
2022-10-26T20:53:54.723Z,101118.26
2022-10-26T20:56:28.001Z,101116.38
2022-10-26T20:59:01.847Z,101114.64
2022-10-26T21:01:34.994Z,101118.40
2022-10-26T21:04:06.677Z,101124.55
2022-10-26T21:06:41.439Z,101127.29
2022-10-26T21:09:12.614Z,101130.54
2022-10-26T21:11:45.519Z,101135.14
2022-10-26T21:14:16.752Z,101134.29
2022-10-26T21:16:47.813Z,101135.67
2022-10-26T21:19:19.673Z,101138.23
2022-10-26T21:21:50.965Z,101134.30
2022-10-26T21:24:24.936Z,101137.76
2022-10-26T21:26:56.145Z,101135.38
2022-10-26T21:29:27.522Z,101135.20
2022-10-26T21:31:58.871Z,101137.78
2022-10-26T21:34:30.312Z,101135.21
2022-10-26T21:37:02.009Z,101133.84
2022-10-26T21:39:33.336Z,101135.55
2022-10-26T21:42:04.463Z,101139.48
2022-10-26T21:44:41.419Z,101138.97
2022-10-26T21:47:13.735Z,101141.19
2022-10-26T21:49:44.760Z,101141.70
2022-10-26T21:52:15.750Z,101145.96
2022-10-26T21:54:46.885Z,101151.60
2022-10-26T21:57:18.076Z,101152.63
2022-10-26T21:59:49.069Z,101151.75
2022-10-26T22:02:20.137Z,101153.27
2022-10-26T22:04:51.331Z,101150.19
2022-10-26T22:07:22.379Z,101144.71
2022-10-26T22:10:09.664Z,101146.40
2022-10-26T22:12:41.561Z,101148.64
2022-10-26T22:15:13.178Z,101149.33
2022-10-26T22:17:44.428Z,101145.55
2022-10-26T22:20:15.752Z,101148.80
2022-10-26T22:22:46.760Z,101148.98
2022-10-26T22:25:18.015Z,101150.55
2022-10-26T22:27:50.279Z,101150.35
2022-10-26T22:30:21.888Z,101153.60
2022-10-26T22:32:53.133Z,101151.73
2022-10-26T22:35:29.515Z,101147.63
2022-10-26T22:38:02.899Z,101158.23
2022-10-26T22:40:33.890Z,101157.73
2022-10-26T22:43:04.927Z,101160.12
2022-10-26T22:45:35.952Z,101159.27
2022-10-26T22:50:41.526Z,101156.90
2022-10-26T22:53:12.692Z,101158.80
2022-10-26T22:55:45.967Z,101155.55
2022-10-26T22:58:17.312Z,101157.77
2022-10-26T23:00:48.286Z,101156.41
2022-10-26T23:03:19.338Z,101152.30
2022-10-26T23:05:50.810Z,101152.82
2022-10-26T23:08:21.780Z,101151.27
2022-10-26T23:10:53.039Z,101147.34
2022-10-26T23:13:24.042Z,101144.25
2022-10-26T23:15:55.010Z,101143.92
2022-10-26T23:18:26.408Z,101140.15
2022-10-26T23:20:57.503Z,101138.43
2022-10-26T23:23:28.533Z,101137.75
2022-10-26T23:26:03.699Z,101134.84
2022-10-26T23:28:35.850Z,101137.94
2022-10-26T23:31:07.317Z,101140.33
2022-10-26T23:33:38.250Z,101137.92
2022-10-26T23:36:09.957Z,101138.61
2022-10-26T23:38:41.144Z,101139.48
2022-10-26T23:41:13.114Z,101143.23
2022-10-26T23:43:44.967Z,101145.65
2022-10-26T23:46:16.131Z,101147.36
2022-10-26T23:48:47.153Z,101151.45
2022-10-26T23:51:18.149Z,101151.81
2022-10-26T23:53:49.183Z,101151.81
2022-10-26T23:56:20.144Z,101150.63
2022-10-26T23:58:53.455Z,101146.85
